Greifswald — 3FEC8 — position and weather

sailwx.info

Track history (hours):
 
Tides and Currents Weather Stations Pressure Air Temp Water Temp Dewpoint Dewpoint Depression Visibility Wind Speed Wind Dir Waves Ship Positions

Greifswald

Last reported at 2014-Dec-17 11:19 UTC. Time now 2014-Dec-17 23:15 UTC.
Position N 44°06' E 033°54'.

Length 191 m; draft 6.5 m.

Type: Ship. MMSI: 370492000.

Date/timePositionNaut miles runAvg speedWind from/ knotsBaromVisibWave heightAir tempDewpointWater temp
2014-Dec-17 11:19N 44°06' E 033°54'1213.1
2014-Dec-17 10:23N 44°01' E 034°10'1212.7
2014-Dec-17 09:24N 43°56' E 034°26'1012.3
2014-Dec-17 08:34N 43°52' E 034°39'10 8.4
2014-Dec-17 07:24N 43°48' E 034°52'7 7.3
2014-Dec-17 06:29N 43°46' E 035°00'8 7.1
2014-Dec-17 05:24N 43°43' E 035°10'  
2014-Dec-14 04:16N 42°29' E 036°30'1014.5
2014-Dec-14 03:33N 42°32' E 036°16'  
2014-Dec-10 20:21N 44°03' E 034°06'1214.8
2014-Dec-10 19:33N 43°58' E 034°21'3014.6
2014-Dec-10 17:29N 43°46' E 034°59'  
2014-Dec-07 22:20N 43°41' E 035°06'2016.0
2014-Dec-07 21:06N 43°49' E 034°41'1615.8
2014-Dec-07 20:06N 43°55' E 034°21'1215.1
2014-Dec-07 19:17N 44°00' E 034°05'6613.9
2014-Dec-07 14:34N 44°42' E 032°54'  
Track history (hours):
 
Tides and Currents Weather Stations Pressure Air Temp Water Temp Dewpoint Dewpoint Depression Visibility Wind Speed Wind Dir Waves Ship Positions

Greifswald

Last reported at 2014-Dec-17 11:19 UTC. Time now 2014-Dec-17 23:15 UTC.
Position N 44°06' E 033°54'.

Length 191 m; draft 6.5 m.

Type: Ship. MMSI: 370492000.

Date/timePositionNaut miles runAvg speedWind from/ knotsBaromVisibWave heightAir tempDewpointWater temp
2014-Dec-17 11:19N 44°06' E 033°54'1213.1
2014-Dec-17 10:23N 44°01' E 034°10'1212.7
2014-Dec-17 09:24N 43°56' E 034°26'1012.3
2014-Dec-17 08:34N 43°52' E 034°39'10 8.4
2014-Dec-17 07:24N 43°48' E 034°52'7 7.3
2014-Dec-17 06:29N 43°46' E 035°00'8 7.1
2014-Dec-17 05:24N 43°43' E 035°10'  
2014-Dec-14 04:16N 42°29' E 036°30'1014.5
2014-Dec-14 03:33N 42°32' E 036°16'  
2014-Dec-10 20:21N 44°03' E 034°06'1214.8
2014-Dec-10 19:33N 43°58' E 034°21'3014.6
2014-Dec-10 17:29N 43°46' E 034°59'  
2014-Dec-07 22:20N 43°41' E 035°06'2016.0
2014-Dec-07 21:06N 43°49' E 034°41'1615.8
2014-Dec-07 20:06N 43°55' E 034°21'1215.1
2014-Dec-07 19:17N 44°00' E 034°05'6613.9
2014-Dec-07 14:34N 44°42' E 032°54'  

Dump ship's entire track history